Time;durP1;ratioP1;P1;durP2;ratioP2;P2;SDS_P1;SDS_P2;PMS_P1;PMS_P2;Temp;Humidity;BMP_temperature;BMP_pressure;BME280_temperature;BME280_humidity;BME280_pressure;Samples;Min_cycle;Max_cycle;Signal;HPM_P1;HPM_P2
2021/08/11 00:02:23;;;;;;;;;;;;;;;-144.99;100.00;52374.72;5018993;28;19990;-58
2021/08/11 00:04:50;;;;;;;;;;;;;;;-144.99;100.00;52380.84;5018084;28;19970;-57
2021/08/11 00:07:16;;;;;;;;;;;;;;;-144.99;100.00;52419.56;5020478;28;19983;-59
2021/08/11 00:09:44;;;;;;;;;;;;;;;-144.99;100.00;52372.69;5021059;28;20100;-61
2021/08/11 00:12:10;;;;;;;;;;;;;;;-144.99;100.00;52397.13;5011784;28;20454;-61
2021/08/11 00:14:37;;;;;;;;;;;;;;;-144.99;100.00;52433.81;5012008;28;19979;-59
2021/08/11 00:17:03;;;;;;;;;;;;;;;-144.99;100.00;52376.75;5014943;28;20424;-59
2021/08/11 00:19:30;;;;;;;;;;;;;;;-144.99;100.00;52435.88;5020520;28;20001;-59
2021/08/11 00:21:56;;;;;;;;;;;;;;;-144.99;100.00;52423.63;5010854;28;19978;-59
2021/08/11 00:24:22;;;;;;;;;;;;;;;-144.99;100.00;52378.78;5012217;28;20407;-59
2021/08/11 00:26:50;;;;;;;;;;;;;;;-144.99;100.00;52417.53;5011758;28;19986;-62
2021/08/11 00:29:16;;;;;;;;;;;;;;;-144.99;100.00;52366.56;5009715;28;19989;-62
2021/08/11 00:31:43;;;;;;;;;;;;;;;-144.99;100.00;52431.78;5022201;28;19972;-62
2021/08/11 00:34:09;;;;;;;;;;;;;;;-144.99;100.00;52419.56;5015354;28;19978;-61
2021/08/11 00:36:35;;;;;;;;;;;;;;;-144.99;100.00;52419.56;5011357;28;19982;-61
2021/08/11 00:39:02;;;;;;;;;;;;;;;-144.99;100.00;52399.19;5011114;28;20477;-61
2021/08/11 00:41:28;;;;;;;;;;;;;;;-144.99;100.00;52419.56;5011497;28;19989;-61
2021/08/11 00:43:56;;;;;;;;;;;;;;;-144.99;100.00;52435.88;5011211;28;19998;-61
2021/08/11 00:46:22;;;;;;;;;;;;;;;-144.99;100.00;52409.38;5011012;28;19987;-61
2021/08/11 00:48:49;;;;;;;;;;;;;;;-144.99;100.00;52439.94;5011002;28;20343;-63
2021/08/11 00:51:15;;;;;;;;;;;;;;;-144.99;100.00;52415.47;5011229;28;20137;-59
2021/08/11 00:53:42;;;;;;;;;;;;;;;-144.99;100.00;52386.94;5010921;28;20434;-59
2021/08/11 00:56:09;;;;;;;;;;;;;;;-144.99;100.00;52431.78;5016796;28;19999;-59
2021/08/11 00:58:36;;;;;;;;;;;;;;;-144.99;100.00;52374.72;5010519;28;20376;-59
2021/08/11 01:01:04;;;;;;;;;;;;;;;-144.99;100.00;52415.47;5010459;28;20504;-59
2021/08/11 01:03:32;;;;;;;;;;;;;;;-144.99;100.00;52417.53;5024965;28;19999;-60
2021/08/11 01:06:00;;;;;;;;;;;;;;;-144.99;100.00;52415.47;5025541;28;20313;-59
2021/08/11 01:08:27;;;;;;;;;;;;;;;-144.99;100.00;52448.09;5026653;28;20442;-58
2021/08/11 01:10:53;;;;;;;;;;;;;;;-144.99;100.00;52423.63;5010335;28;20417;-58
2021/08/11 01:13:20;;;;;;;;;;;;;;;-144.99;100.00;52431.78;5010837;28;19980;-59
2021/08/11 01:15:47;;;;;;;;;;;;;;;-144.99;100.00;52464.41;5011008;28;19990;-59
2021/08/11 01:18:15;;;;;;;;;;;;;;;-144.99;100.00;52342.09;5022516;28;20065;-60
2021/08/11 01:20:45;;;;;;;;;;;;;;;-144.99;100.00;52427.72;5010300;28;20398;-59
2021/08/11 01:23:14;;;;;;;;;;;;;;;-144.99;100.00;52374.72;5009910;28;20004;-59
2021/08/11 01:25:42;;;;;;;;;;;;;;;-144.99;100.00;52419.56;5010920;28;19980;-59
2021/08/11 01:28:27;;;;;;;;;;;;;;;-144.99;100.00;52415.47;5010321;28;20202;-59
2021/08/11 01:30:57;;;;;;;;;;;;;;;-144.99;100.00;52395.09;5017533;28;19982;-59
2021/08/11 01:33:46;;;;;;;;;;;;;;;-144.99;100.00;52399.19;5018760;28;20061;-59
2021/08/11 01:36:16;;;;;;;;;;;;;;;-144.99;100.00;52444.03;5010544;28;20047;-61
2021/08/11 01:38:45;;;;;;;;;;;;;;;-144.99;100.00;52419.56;5010426;28;20001;-62
2021/08/11 01:41:13;;;;;;;;;;;;;;;-144.99;100.00;52444.03;5010898;28;19951;-61
2021/08/11 01:43:44;;;;;;;;;;;;;;;-144.99;100.00;52411.41;5008959;28;20495;-61
2021/08/11 01:46:12;;;;;;;;;;;;;;;-144.99;100.00;52437.91;5010252;28;19985;-61
2021/08/11 01:48:39;;;;;;;;;;;;;;;-144.99;100.00;52407.31;5010585;28;20003;-59
2021/08/11 01:51:08;;;;;;;;;;;;;;;-144.99;100.00;52415.47;5009879;28;20426;-60
2021/08/11 01:53:34;;;;;;;;;;;;;;;-144.99;100.00;52427.72;5010428;28;19987;-59
2021/08/11 01:56:02;;;;;;;;;;;;;;;-144.99;100.00;52444.03;5015082;28;20404;-59
2021/08/11 01:58:30;;;;;;;;;;;;;;;-144.99;100.00;52452.16;5010776;28;19987;-59
2021/08/11 02:00:57;;;;;;;;;;;;;;;-144.99;100.00;52411.41;5009437;28;19976;-59
2021/08/11 02:03:25;;;;;;;;;;;;;;;-144.99;100.00;52427.72;5023855;28;19997;-59
2021/08/11 02:05:52;;;;;;;;;;;;;;;-144.99;100.00;52431.78;5022947;28;19982;-59
2021/08/11 02:08:20;;;;;;;;;;;;;;;-144.99;100.00;52419.56;5025980;28;20405;-59
2021/08/11 02:10:48;;;;;;;;;;;;;;;-144.99;100.00;52458.28;5010831;28;19992;-60
2021/08/11 02:13:14;;;;;;;;;;;;;;;-144.99;100.00;52435.88;5010663;28;19983;-60
2021/08/11 02:15:41;;;;;;;;;;;;;;;-144.99;100.00;52427.72;5010022;28;19980;-60
2021/08/11 02:18:08;;;;;;;;;;;;;;;-144.99;100.00;52393.06;5022063;28;19976;-60
2021/08/11 02:20:35;;;;;;;;;;;;;;;-144.99;100.00;52395.09;5009542;28;20034;-61
2021/08/11 02:23:01;;;;;;;;;;;;;;;-144.99;100.00;52423.63;5010068;28;19996;-62
2021/08/11 02:25:29;;;;;;;;;;;;;;;-144.99;100.00;52399.19;5009730;28;19986;-59
2021/08/11 02:28:01;;;;;;;;;;;;;;;-144.99;100.00;52421.59;5009835;28;19990;-57
2021/08/11 02:30:31;;;;;;;;;;;;;;;-144.99;100.00;52403.25;5009932;28;20479;-58
2021/08/11 02:33:00;;;;;;;;;;;;;;;-144.99;100.00;52409.38;5021206;28;19985;-57
2021/08/11 02:35:29;;;;;;;;;;;;;;;-144.99;100.00;52403.25;5009155;28;19984;-58
2021/08/11 02:37:58;;;;;;;;;;;;;;;-144.99;100.00;52391.03;5008441;28;19984;-58
2021/08/11 02:40:30;;;;;;;;;;;;;;;-144.99;100.00;52480.72;5008547;28;20006;-58
2021/08/11 02:43:02;;;;;;;;;;;;;;;-144.99;100.00;52391.03;5009571;28;19926;-58
2021/08/11 02:45:30;;;;;;;;;;;;;;;-144.99;100.00;52439.94;5009288;28;20329;-57
2021/08/11 02:47:56;;;;;;;;;;;;;;;-144.99;100.00;52423.63;5009329;28;19980;-57
2021/08/11 02:50:23;;;;;;;;;;;;;;;-144.99;100.00;52427.72;5008839;28;19996;-58
2021/08/11 02:52:50;;;;;;;;;;;;;;;-144.99;100.00;52439.94;5009315;28;20016;-58
2021/08/11 02:55:16;;;;;;;;;;;;;;;-144.99;100.00;52407.31;5017907;28;19995;-57
2021/08/11 02:57:43;;;;;;;;;;;;;;;-144.99;100.00;52433.81;5013207;28;19994;-60
2021/08/11 03:00:11;;;;;;;;;;;;;;;-144.99;100.00;52456.25;5013075;28;20110;-59
2021/08/11 03:02:38;;;;;;;;;;;;;;;-144.99;100.00;52452.16;5022231;28;19971;-59
2021/08/11 03:05:05;;;;;;;;;;;;;;;-144.99;100.00;52435.88;5017026;28;19980;-59
2021/08/11 03:07:32;;;;;;;;;;;;;;;-144.99;100.00;52444.03;5020186;28;19976;-59
2021/08/11 03:09:58;;;;;;;;;;;;;;;-144.99;100.00;52386.94;5018830;28;19992;-59
2021/08/11 03:12:25;;;;;;;;;;;;;;;-144.99;100.00;52419.56;5013600;28;19999;-59
2021/08/11 03:14:52;;;;;;;;;;;;;;;-144.99;100.00;52407.31;5013063;28;20356;-58
2021/08/11 03:17:20;;;;;;;;;;;;;;;-144.99;100.00;52427.72;5018270;28;20448;-57
2021/08/11 03:19:46;;;;;;;;;;;;;;;-144.99;100.00;52444.03;5019026;28;20008;-56
2021/08/11 03:22:12;;;;;;;;;;;;;;;-144.99;100.00;52423.63;5013041;28;19981;-58
2021/08/11 03:24:39;;;;;;;;;;;;;;;-144.99;100.00;52456.25;5013036;28;19995;-58
2021/08/11 03:27:05;;;;;;;;;;;;;;;-144.99;100.00;52427.72;5012610;28;19980;-59
2021/08/11 03:29:32;;;;;;;;;;;;;;;-144.99;100.00;52435.88;5013877;28;19999;-60
2021/08/11 03:31:58;;;;;;;;;;;;;;;-144.99;100.00;52444.03;5025333;28;20071;-60
2021/08/11 03:34:26;;;;;;;;;;;;;;;-144.99;100.00;52448.09;5014175;28;19990;-61
2021/08/11 03:36:52;;;;;;;;;;;;;;;-144.99;100.00;52444.03;5012146;28;19996;-60
2021/08/11 03:39:18;;;;;;;;;;;;;;;-144.99;100.00;52439.94;5012585;28;19978;-60
2021/08/11 03:41:45;;;;;;;;;;;;;;;-144.99;100.00;52425.66;5012793;28;19990;-62
2021/08/11 03:44:11;;;;;;;;;;;;;;;-144.99;100.00;52423.63;5012636;28;20292;-62
2021/08/11 03:46:37;;;;;;;;;;;;;;;-144.99;100.00;52423.63;5012651;28;19984;-62
2021/08/11 03:49:04;;;;;;;;;;;;;;;-144.99;100.00;52433.81;5012379;28;20019;-62
2021/08/11 03:51:31;;;;;;;;;;;;;;;-144.99;100.00;52439.94;5012518;28;19989;-63
2021/08/11 03:53:58;;;;;;;;;;;;;;;-144.99;100.00;52427.72;5012676;28;19979;-62
2021/08/11 03:56:24;;;;;;;;;;;;;;;-144.99;100.00;52419.56;5017925;28;19990;-62
2021/08/11 03:58:51;;;;;;;;;;;;;;;-144.99;100.00;52441.97;5011572;28;20006;-63
2021/08/11 04:01:18;;;;;;;;;;;;;;;-144.99;100.00;52403.25;5012315;28;19988;-58
2021/08/11 04:03:44;;;;;;;;;;;;;;;-144.99;100.00;52431.78;5025201;28;19995;-60
2021/08/11 04:06:11;;;;;;;;;;;;;;;-144.99;100.00;52458.28;5018035;28;19979;-59
2021/08/11 04:08:38;;;;;;;;;;;;;;;-144.99;100.00;52417.53;5026617;28;19992;-60
2021/08/11 04:11:05;;;;;;;;;;;;;;;-144.99;100.00;52431.78;5012065;28;19998;-61
2021/08/11 04:13:31;;;;;;;;;;;;;;;-144.99;100.00;52409.38;5011877;28;19990;-61
2021/08/11 04:15:57;;;;;;;;;;;;;;;-144.99;100.00;52407.31;5011884;28;20023;-61
2021/08/11 04:18:24;;;;;;;;;;;;;;;-144.99;100.00;52423.63;5024146;28;19975;-60
2021/08/11 04:20:50;;;;;;;;;;;;;;;-144.99;100.00;52431.78;5011112;28;20139;-60
2021/08/11 04:23:17;;;;;;;;;;;;;;;-144.99;100.00;52476.63;5011080;28;19940;-59
2021/08/11 04:25:44;;;;;;;;;;;;;;;-144.99;100.00;52403.25;5011738;28;19991;-60
2021/08/11 04:28:11;;;;;;;;;;;;;;;-144.99;100.00;52456.25;5011443;28;19984;-61
2021/08/11 04:30:40;;;;;;;;;;;;;;;-144.99;100.00;52446.06;5016002;28;20453;-59
2021/08/11 04:33:06;;;;;;;;;;;;;;;-144.99;100.00;52423.63;5022108;28;20065;-60
2021/08/11 04:35:33;;;;;;;;;;;;;;;-144.99;100.00;52403.25;5011770;28;19980;-60
2021/08/11 04:37:59;;;;;;;;;;;;;;;-144.99;100.00;52452.16;5010868;28;19976;-59
2021/08/11 04:40:25;;;;;;;;;;;;;;;-144.99;100.00;52421.59;5011522;28;20002;-60
2021/08/11 04:42:53;;;;;;;;;;;;;;;-144.99;100.00;52423.63;5011371;28;19985;-61
2021/08/11 04:45:19;;;;;;;;;;;;;;;-144.99;100.00;52391.03;5011193;28;20011;-61
2021/08/11 04:47:47;;;;;;;;;;;;;;;-144.99;100.00;52419.56;5011136;28;19980;-61
2021/08/11 04:50:13;;;;;;;;;;;;;;;-144.99;100.00;52391.03;5011329;28;19996;-62
2021/08/11 04:52:40;;;;;;;;;;;;;;;-144.99;100.00;52399.19;5010487;28;19992;-61
2021/08/11 04:55:06;;;;;;;;;;;;;;;-144.99;100.00;52464.41;5016060;28;20332;-61
2021/08/11 04:57:33;;;;;;;;;;;;;;;-144.99;100.00;52431.78;5011115;28;19991;-61
2021/08/11 05:00:00;;;;;;;;;;;;;;;-144.99;100.00;52403.25;5022715;22;21376;-68
2021/08/11 05:02:27;;;;;;;;;;;;;;;-144.99;100.00;52431.78;4991995;28;19976;-71
2021/08/11 05:04:53;;;;;;;;;;;;;;;-144.99;100.00;52395.09;5001155;28;19997;-70
2021/08/11 05:07:19;;;;;;;;;;;;;;;-144.99;100.00;52399.19;4995144;28;19977;-70
2021/08/11 05:09:46;;;;;;;;;;;;;;;-144.99;100.00;52407.31;5001384;28;20086;-70
2021/08/11 05:12:12;;;;;;;;;;;;;;;-144.99;100.00;52427.72;4992592;28;20002;-69
2021/08/11 05:14:38;;;;;;;;;;;;;;;-144.99;100.00;52431.78;4993249;28;19981;-69
2021/08/11 05:17:06;;;;;;;;;;;;;;;-144.99;100.00;52415.47;4996584;28;20442;-69
2021/08/11 05:19:32;;;;;;;;;;;;;;;-144.99;100.00;52395.09;5000385;28;20004;-68
2021/08/11 05:21:59;;;;;;;;;;;;;;;-144.99;100.00;52386.94;4992143;28;20453;-68
2021/08/11 05:24:26;;;;;;;;;;;;;;;-144.99;100.00;52419.56;4992745;28;19996;-68
2021/08/11 05:26:52;;;;;;;;;;;;;;;-144.99;100.00;52399.19;4994043;28;19992;-68
2021/08/11 05:29:19;;;;;;;;;;;;;;;-144.99;100.00;52415.47;4993470;28;19975;-69
2021/08/11 05:31:48;;;;;;;;;;;;;;;-144.99;100.00;52368.59;4993300;28;19981;-69
2021/08/11 05:34:16;;;;;;;;;;;;;;;-144.99;100.00;52419.56;4996321;28;20423;-69
2021/08/11 05:36:42;;;;;;;;;;;;;;;-144.99;100.00;52366.56;4994121;28;19981;-70
2021/08/11 05:39:09;;;;;;;;;;;;;;;-144.99;100.00;52382.88;4993891;28;19998;-69
2021/08/11 05:41:35;;;;;;;;;;;;;;;-144.99;100.00;52354.34;4992700;28;19985;-68
2021/08/11 05:44:01;;;;;;;;;;;;;;;-144.99;100.00;52378.78;4992549;28;20020;-69
2021/08/11 05:46:28;;;;;;;;;;;;;;;-144.99;100.00;52374.72;4992070;28;20386;-68
2021/08/11 05:48:55;;;;;;;;;;;;;;;-144.99;100.00;52427.72;4991944;28;20001;-69
2021/08/11 05:51:23;;;;;;;;;;;;;;;-144.99;100.00;52370.63;4991922;28;19987;-70
2021/08/11 05:53:49;;;;;;;;;;;;;;;-144.99;100.00;52354.34;4992066;28;19986;-68
2021/08/11 05:56:16;;;;;;;;;;;;;;;-144.99;100.00;52333.94;4997131;28;19977;-69
2021/08/11 05:58:42;;;;;;;;;;;;;;;-144.99;100.00;52374.72;4992153;28;20005;-68
2021/08/11 06:01:08;;;;;;;;;;;;;;;-144.99;100.00;52388.97;4991372;28;19994;-68
2021/08/11 06:03:35;;;;;;;;;;;;;;;-144.99;100.00;52342.09;5006403;28;20386;-68
2021/08/11 06:06:01;;;;;;;;;;;;;;;-144.99;100.00;52362.50;4999496;28;19984;-68
2021/08/11 06:08:31;;;;;;;;;;;;;;;-144.99;100.00;52356.38;5001673;28;19932;-68
2021/08/11 06:10:57;;;;;;;;;;;;;;;-144.99;100.00;52362.50;4991781;28;19989;-68
2021/08/11 06:13:24;;;;;;;;;;;;;;;-144.99;100.00;52333.94;4992115;28;19989;-72
2021/08/11 06:15:50;;;;;;;;;;;;;;;-144.99;100.00;52354.34;4991533;28;20464;-72
2021/08/11 06:18:17;;;;;;;;;;;;;;;-144.99;100.00;52313.56;4991504;28;20467;-69
2021/08/11 06:20:43;;;;;;;;;;;;;;;-144.99;100.00;52362.50;4991652;28;19984;-69
2021/08/11 06:23:09;;;;;;;;;;;;;;;-144.99;100.00;52317.66;4991800;28;19986;-69
2021/08/11 06:25:37;;;;;;;;;;;;;;;-144.99;100.00;52362.50;4991199;28;20076;-69
2021/08/11 06:28:03;;;;;;;;;;;;;;;-144.99;100.00;52378.78;4992980;28;19986;-70
2021/08/11 06:30:30;;;;;;;;;;;;;;;-144.99;100.00;52366.56;4989307;28;20000;-71
2021/08/11 06:32:56;;;;;;;;;;;;;;;-144.99;100.00;52354.34;5003050;28;19986;-71
2021/08/11 06:35:23;;;;;;;;;;;;;;;-144.99;100.00;52297.25;4992173;28;19992;-72
2021/08/11 06:37:50;;;;;;;;;;;;;;;-144.99;100.00;52366.56;4991195;28;20357;-72
2021/08/11 06:40:17;;;;;;;;;;;;;;;-144.99;100.00;52321.72;4991443;28;20009;-73
2021/08/11 06:42:45;;;;;;;;;;;;;;;-144.99;100.00;52358.41;4992509;28;20343;-71
2021/08/11 06:45:12;;;;;;;;;;;;;;;-144.99;98.59;52338.03;4992853;28;20007;-72
2021/08/11 06:47:39;;;;;;;;;;;;;;;-144.99;97.65;52342.09;4991847;28;20075;-72
2021/08/11 06:50:06;;;;;;;;;;;;;;;-144.99;96.68;52336.00;4991634;28;20019;-73
2021/08/11 06:52:34;;;;;;;;;;;;;;;-144.99;96.54;52313.56;4991497;28;20023;-72
2021/08/11 06:55:00;;;;;;;;;;;;;;;-144.99;96.08;52303.38;4995987;28;20035;-72
2021/08/11 06:57:27;;;;;;;;;;;;;;;-144.99;96.22;52323.75;4992694;28;19982;-71
2021/08/11 06:59:54;;;;;;;;;;;;;;;-144.99;95.16;52305.41;4991294;28;19999;-72
2021/08/11 07:02:21;;;;;;;;;;;;;;;-144.99;95.07;52323.75;4997346;28;20361;-70
2021/08/11 07:04:48;;;;;;;;;;;;;;;-144.99;93.93;52309.50;4998587;28;20477;-69
2021/08/11 07:07:14;;;;;;;;;;;;;;;-144.99;93.27;52329.88;4994062;28;20759;-69
2021/08/11 07:09:41;;;;;;;;;;;;;;;-144.99;92.00;52333.94;5000769;28;20021;-69
2021/08/11 07:12:07;;;;;;;;;;;;;;;-144.99;92.10;52325.81;4990896;28;20005;-70
2021/08/11 07:14:34;;;;;;;;;;;;;;;-144.99;92.09;52309.50;4991488;28;19982;-69
2021/08/11 07:17:01;;;;;;;;;;;;;;;-144.99;90.73;52329.88;4993878;28;19986;-69
2021/08/11 07:19:28;;;;;;;;;;;;;;;-144.99;88.92;52358.41;5000191;28;19996;-69
2021/08/11 07:21:54;;;;;;;;;;;;;;;-144.99;88.07;52342.09;4990131;28;20466;-69
2021/08/11 07:24:20;;;;;;;;;;;;;;;-144.99;87.71;52317.66;4991514;28;19998;-69
2021/08/11 07:26:47;;;;;;;;;;;;;;;-144.99;88.36;52313.56;4990975;28;19980;-69
2021/08/11 07:29:13;;;;;;;;;;;;;;;-144.99;88.02;52297.25;4990988;28;19998;-69
2021/08/11 07:31:39;;;;;;;;;;;;;;;-144.99;87.08;52333.94;4997593;28;20038;-72
2021/08/11 07:34:07;;;;;;;;;;;;;;;-144.99;86.13;52307.47;4994266;28;19978;-69
2021/08/11 07:36:34;;;;;;;;;;;;;;;-144.99;84.61;52297.25;4990497;28;20021;-69
2021/08/11 07:39:00;;;;;;;;;;;;;;;-144.99;84.85;52325.81;4990467;28;20018;-69
2021/08/11 07:41:26;;;;;;;;;;;;;;;-144.99;85.28;52299.31;4992278;28;19981;-69
2021/08/11 07:43:53;;;;;;;;;;;;;;;-144.99;84.12;52305.41;4994008;28;19989;-70
2021/08/11 07:46:19;;;;;;;;;;;;;;;-144.99;84.44;52354.34;4993760;28;20474;-69
2021/08/11 07:48:45;;;;;;;;;;;;;;;-144.99;84.28;52354.34;4992481;28;20001;-69
2021/08/11 07:51:13;;;;;;;;;;;;;;;-144.99;84.82;52287.06;4992865;28;20348;-72
2021/08/11 07:53:39;;;;;;;;;;;;;;;-144.99;84.65;52309.50;4993974;28;19973;-71
2021/08/11 07:56:06;;;;;;;;;;;;;;;-144.99;83.67;52305.41;4994737;28;19998;-71
2021/08/11 07:58:33;;;;;;;;;;;;;;;-144.99;81.74;52366.56;5002559;28;19995;-71
2021/08/11 08:01:00;;;;;;;;;;;;;;;-144.99;82.90;52293.19;4994652;28;19985;-71
2021/08/11 08:03:26;;;;;;;;;;;;;;;-144.99;82.71;52297.25;4994520;28;19994;-72
2021/08/11 08:05:52;;;;;;;;;;;;;;;-144.99;83.34;52280.97;5002275;28;20007;-72
2021/08/11 08:08:20;;;;;;;;;;;;;;;-144.99;81.40;52276.88;5003111;28;19977;-72
2021/08/11 08:10:46;;;;;;;;;;;;;;;-144.99;79.96;52264.66;5015102;28;20242;-73
2021/08/11 08:13:13;;;;;;;;;;;;;;;-144.99;78.31;52260.56;5014655;28;20158;-72
2021/08/11 08:15:39;;;;;;;;;;;;;;;-144.99;76.32;52301.34;4994496;28;20463;-72
2021/08/11 08:18:06;;;;;;;;;;;;;;;-144.99;75.80;52301.34;5007025;28;19980;-72
2021/08/11 08:20:34;;;;;;;;;;;;;;;-144.99;73.77;52305.41;4984065;28;20001;-72
2021/08/11 08:23:00;;;;;;;;;;;;;;;-144.99;74.11;52321.72;4996118;28;20096;-73
2021/08/11 08:25:28;;;;;;;;;;;;;;;-144.99;74.27;52325.81;5000869;28;20047;-73
2021/08/11 08:27:55;;;;;;;;;;;;;;;-144.99;74.82;52303.38;5001514;28;19980;-73
2021/08/11 08:30:21;;;;;;;;;;;;;;;-144.99;74.36;52301.34;4995195;28;19998;-73
2021/08/11 08:32:49;;;;;;;;;;;;;;;-144.99;73.66;52305.41;5002638;28;20007;-73
2021/08/11 08:35:16;;;;;;;;;;;;;;;-144.99;73.38;52311.53;5007845;28;19992;-73
2021/08/11 08:37:42;;;;;;;;;;;;;;;-144.99;73.78;52321.72;5002713;28;20074;-73
2021/08/11 08:40:10;;;;;;;;;;;;;;;-144.99;73.82;52276.88;5005948;28;20005;-73
2021/08/11 08:42:38;;;;;;;;;;;;;;;-144.99;73.63;52317.66;4996589;28;19980;-73
2021/08/11 08:45:05;;;;;;;;;;;;;;;-144.99;72.95;52299.31;4998719;28;20007;-74
2021/08/11 08:47:32;;;;;;;;;;;;;;;-144.99;73.51;52321.72;5003242;28;19988;-74
2021/08/11 08:50:00;;;;;;;;;;;;;;;-144.99;72.52;52280.97;4999633;28;20003;-73
2021/08/11 08:52:27;;;;;;;;;;;;;;;-144.99;72.14;52289.13;4992842;28;20073;-73
2021/08/11 08:54:56;;;;;;;;;;;;;;;-144.99;72.36;52329.88;4997045;28;19988;-73
2021/08/11 08:57:23;;;;;;;;;;;;;;;-144.99;70.71;52293.19;5009767;28;20044;-74
2021/08/11 08:59:50;;;;;;;;;;;;;;;-144.99;70.85;52289.13;5004338;28;19979;-73
2021/08/11 09:02:17;;;;;;;;;;;;;;;-144.99;70.17;52285.03;4997214;28;19965;-72
2021/08/11 09:04:44;;;;;;;;;;;;;;;-144.99;69.82;52260.56;4993779;28;20427;-71
2021/08/11 09:07:13;;;;;;;;;;;;;;;-144.99;69.77;52242.22;4999725;28;19981;-71
2021/08/11 09:09:40;;;;;;;;;;;;;;;-144.99;68.34;52260.56;4993906;28;19996;-74
2021/08/11 09:12:11;;;;;;;;;;;;;;;-144.99;66.41;52230.00;4992491;28;19981;-73
2021/08/11 09:14:42;;;;;;;;;;;;;;;-144.99;67.06;52283.00;4995608;28;20070;-74
2021/08/11 09:17:10;;;;;;;;;;;;;;;-144.99;67.30;52260.56;4999505;28;19971;-73
2021/08/11 09:19:40;;;;;;;;;;;;;;;-144.99;66.44;52291.16;4981577;28;19996;-74
2021/08/11 09:22:08;;;;;;;;;;;;;;;-144.99;64.45;52232.03;4997297;28;19976;-73
2021/08/11 09:24:36;;;;;;;;;;;;;;;-144.99;64.00;52230.00;5001214;28;19948;-74
2021/08/11 09:27:15;;;;;;;;;;;;;;;-144.99;63.41;52236.13;4998191;28;19973;-72
2021/08/11 09:30:00;;;;;;;;;;;;;;;-144.99;61.99;52234.09;4994304;28;19995;-72
2021/08/11 09:32:43;;;;;;;;;;;;;;;-144.99;62.15;52268.72;5013396;28;19930;-75
2021/08/11 09:35:11;;;;;;;;;;;;;;;-144.99;61.43;52246.31;4996337;28;19974;-73
2021/08/11 09:37:38;;;;;;;;;;;;;;;-144.99;60.37;52256.50;5006149;28;19964;-74
2021/08/11 09:40:12;;;;;;;;;;;;;;;-144.99;59.89;52276.88;5004206;28;20007;-74
2021/08/11 09:42:39;;;;;;;;;;;;;;;-144.99;60.37;52260.56;5013275;28;20228;-74
2021/08/11 09:45:08;;;;;;;;;;;;;;;-144.99;60.35;52232.03;5015335;28;19971;-75
2021/08/11 09:47:34;;;;;;;;;;;;;;;-144.99;60.95;52289.13;5012784;28;19958;-73
2021/08/11 09:50:01;;;;;;;;;;;;;;;-144.99;61.39;52232.03;5013866;28;19992;-72
2021/08/11 09:52:45;;;;;;;;;;;;;;;-144.99;62.59;52227.97;5005950;28;19977;-71
2021/08/11 09:55:12;;;;;;;;;;;;;;;-144.99;61.99;52244.28;5007460;28;19951;-73
2021/08/11 09:57:39;;;;;;;;;;;;;;;-144.99;62.70;52227.97;5011623;28;19979;-73
2021/08/11 10:00:06;;;;;;;;;;;;;;;-144.99;61.22;52240.19;5000488;28;20396;-72
2021/08/11 10:02:49;;;;;;;;;;;;;;;-144.99;60.82;52256.50;5018868;28;20012;-73
2021/08/11 10:05:30;;;;;;;;;;;;;;;-144.99;61.39;52270.78;5026890;28;19973;-75
2021/08/11 10:07:58;;;;;;;;;;;;;;;-144.99;61.41;52252.44;5026241;28;19973;-74
2021/08/11 10:10:24;;;;;;;;;;;;;;;-144.99;62.09;52211.66;5015391;28;19989;-72
2021/08/11 10:12:52;;;;;;;;;;;;;;;-144.99;61.92;52242.22;5004788;28;19926;-73
2021/08/11 10:15:20;;;;;;;;;;;;;;;-144.99;59.99;52240.19;5013222;28;20009;-73
2021/08/11 10:17:50;;;;;;;;;;;;;;;-144.99;61.45;52264.66;5018945;28;20018;-73
2021/08/11 10:20:17;;;;;;;;;;;;;;;-144.99;63.01;52232.03;5011828;28;20003;-73
2021/08/11 10:22:44;;;;;;;;;;;;;;;-144.99;63.32;52209.63;4996603;28;19978;-72
2021/08/11 10:25:12;;;;;;;;;;;;;;;-144.99;62.77;52268.72;5002222;28;19986;-73
2021/08/11 10:27:42;;;;;;;;;;;;;;;-144.99;61.75;52260.56;5010163;28;19966;-73
2021/08/11 10:30:10;;;;;;;;;;;;;;;-144.99;62.27;52203.50;5009443;28;20042;-73
2021/08/11 10:32:38;;;;;;;;;;;;;;;-144.99;59.71;52187.19;5006679;28;19971;-72
2021/08/11 10:35:05;;;;;;;;;;;;;;;-144.99;59.21;52191.28;4982681;28;19977;-74
2021/08/11 10:37:33;;;;;;;;;;;;;;;-144.99;58.90;52236.13;4992708;28;20045;-74
2021/08/11 10:40:00;;;;;;;;;;;;;;;-144.99;58.32;52150.53;4991468;28;20054;-74
2021/08/11 10:42:28;;;;;;;;;;;;;;;-144.99;58.65;52215.75;4992152;28;19962;-73
2021/08/11 10:44:57;;;;;;;;;;;;;;;-144.99;57.65;52146.44;4991906;28;19945;-73
2021/08/11 10:47:28;;;;;;;;;;;;;;;-144.99;56.72;52185.16;4991080;28;19988;-73
2021/08/11 10:49:55;;;;;;;;;;;;;;;-144.99;57.08;52138.28;4991659;28;19980;-73
2021/08/11 10:52:22;;;;;;;;;;;;;;;-144.99;57.82;52246.31;4992151;28;20000;-73
2021/08/11 10:54:49;;;;;;;;;;;;;;;-144.99;55.13;52105.69;4996073;28;19926;-72
2021/08/11 10:57:35;;;;;;;;;;;;;;;-144.99;53.15;52117.91;4995011;28;19958;-73
2021/08/11 11:00:04;;;;;;;;;;;;;;;-144.99;52.93;52134.22;4991346;28;20021;-73
2021/08/11 11:02:43;;;;;;;;;;;;;;;-144.99;53.78;52124.03;4991600;28;19997;-76
2021/08/11 11:05:31;;;;;;;;;;;;;;;-144.99;53.05;52109.75;5018244;22;19995;-61
2021/08/11 11:08:13;;;;;;;;;;;;;;;-144.99;52.15;52081.22;5033876;28;20246;-59
2021/08/11 11:10:41;;;;;;;;;;;;;;;-144.99;51.74;52083.25;5009814;28;19956;-60
2021/08/11 11:13:22;;;;;;;;;;;;;;;-144.99;51.93;52199.44;5009029;28;19963;-60
2021/08/11 11:15:54;;;;;;;;;;;;;;;-144.99;53.41;52236.13;5011100;28;20267;-59
2021/08/11 11:18:22;;;;;;;;;;;;;;;-144.99;53.83;52081.22;5025154;28;19952;-59
2021/08/11 11:20:49;;;;;;;;;;;;;;;-144.99;52.61;52073.06;5012525;28;20084;-59
2021/08/11 11:23:30;;;;;;;;;;;;;;;-144.99;53.86;52209.63;5012576;28;20012;-59
2021/08/11 11:26:01;;;;;;;;;;;;;;;-144.99;52.97;52121.97;5013120;28;19947;-60
2021/08/11 11:28:46;;;;;;;;;;;;;;;-144.99;53.44;52073.06;5012781;28;19997;-59
2021/08/11 11:31:30;;;;;;;;;;;;;;;-144.99;52.15;52064.91;5017691;28;19944;-60
2021/08/11 11:34:20;;;;;;;;;;;;;;;-144.99;50.39;52101.59;5016293;28;20051;-60
2021/08/11 11:36:46;;;;;;;;;;;;;;;-144.99;50.43;52121.97;5000183;28;20444;-60
2021/08/11 11:39:13;;;;;;;;;;;;;;;-144.99;50.15;52044.53;5007356;28;19962;-60
2021/08/11 11:42:00;;;;;;;;;;;;;;;-144.99;49.84;52081.22;5012641;28;19954;-61
2021/08/11 11:44:47;;;;;;;;;;;;;;;-144.99;51.27;52219.81;5012532;28;20019;-59
2021/08/11 11:47:15;;;;;;;;;;;;;;;-144.99;51.25;52113.84;5011767;28;19993;-59
2021/08/11 11:49:42;;;;;;;;;;;;;;;-144.99;49.87;52093.44;5012180;28;19968;-58
2021/08/11 11:52:13;;;;;;;;;;;;;;;-144.99;50.49;52230.00;5012248;28;19932;-60
2021/08/11 11:54:43;;;;;;;;;;;;;;;-144.99;51.19;52240.19;5013121;28;19959;-59
2021/08/11 11:57:09;;;;;;;;;;;;;;;-144.99;51.28;52276.88;5016139;28;20005;-58
2021/08/11 11:59:37;;;;;;;;;;;;;;;-144.99;52.72;52264.66;5011864;28;20471;-59
2021/08/11 12:02:13;;;;;;;;;;;;;;;-144.99;53.40;52276.88;5018094;28;19969;-59
2021/08/11 12:04:40;;;;;;;;;;;;;;;-144.99;53.80;52211.66;5007987;28;19955;-59
2021/08/11 12:07:06;;;;;;;;;;;;;;;-144.99;51.03;52093.44;5019486;28;19968;-59
2021/08/11 12:09:44;;;;;;;;;;;;;;;-144.99;49.98;52097.53;5021434;28;19974;-61
2021/08/11 12:12:10;;;;;;;;;;;;;;;-144.99;49.37;52101.59;5011809;28;19931;-58
2021/08/11 12:14:37;;;;;;;;;;;;;;;-144.99;49.53;52087.34;5011325;28;19969;-58
2021/08/11 12:17:04;;;;;;;;;;;;;;;-144.99;49.37;52101.59;5015045;28;19935;-61
2021/08/11 12:19:32;;;;;;;;;;;;;;;-144.99;49.13;52089.38;5019258;28;19940;-59
2021/08/11 12:21:58;;;;;;;;;;;;;;;-144.99;48.50;52146.44;5010847;28;19925;-57
2021/08/11 12:24:24;;;;;;;;;;;;;;;-144.99;48.84;52232.03;5011605;28;19925;-57
2021/08/11 12:26:51;;;;;;;;;;;;;;;-144.99;50.42;52201.47;5010742;28;19964;-59